Time;durP1;ratioP1;P1;durP2;ratioP2;P2;SDS_P1;SDS_P2;PMS_P1;PMS_P2;Temp;Humidity;BMP_temperature;BMP_pressure;BME280_temperature;BME280_humidity;BME280_pressure;Samples;Min_cycle;Max_cycle;Signal;HPM_P1;HPM_P2
2021/12/07 00:01:36;;;;;;;8.43;5.70;;;;;;;4.01;59.94;95934.91;5069562;28;20219;-69
2021/12/07 00:04:03;;;;;;;6.70;5.07;;;;;;;3.88;60.10;95926.63;5053683;28;20867;-69
2021/12/07 00:06:29;;;;;;;5.27;4.60;;;;;;;4.11;60.04;95925.31;5072927;28;20477;-69
2021/12/07 00:08:56;;;;;;;5.43;4.83;;;;;;;3.92;59.86;95925.38;5063997;28;20432;-69
2021/12/07 00:11:24;;;;;;;8.47;4.60;;;;;;;3.83;59.94;95917.50;5073156;28;20424;-69
2021/12/07 00:13:50;;;;;;;7.27;5.13;;;;;;;3.62;61.12;95916.91;5071736;28;21043;-69
2021/12/07 00:16:18;;;;;;;6.03;5.20;;;;;;;3.81;60.40;95908.25;5060323;28;20478;-69
2021/12/07 00:18:45;;;;;;;6.40;4.97;;;;;;;3.85;59.97;95904.38;5072744;28;20195;-69
2021/12/07 00:21:11;;;;;;;5.40;4.30;;;;;;;3.99;59.45;95910.91;5070697;28;20468;-70
2021/12/07 00:23:37;;;;;;;5.47;4.40;;;;;;;3.96;59.81;95903.41;5038586;28;20874;-69
2021/12/07 00:26:04;;;;;;;5.13;4.50;;;;;;;3.94;59.59;95910.50;5038793;28;20446;-73
2021/12/07 00:28:30;;;;;;;8.97;4.80;;;;;;;3.92;59.91;95905.47;5049860;28;20236;-69
2021/12/07 00:31:03;;;;;;;6.70;5.00;;;;;;;3.81;60.09;95900.47;5063362;28;20933;-69
2021/12/07 00:33:37;;;;;;;4.43;3.90;;;;;;;3.91;61.15;95924.56;5057217;28;20206;-69
2021/12/07 00:36:03;;;;;;;5.70;4.63;;;;;;;4.03;60.60;95917.44;5055529;28;20471;-69
2021/12/07 00:38:29;;;;;;;5.70;4.57;;;;;;;4.19;60.65;95918.59;5071992;28;20428;-69
2021/12/07 00:40:57;;;;;;;5.10;4.60;;;;;;;4.06;61.21;95916.34;5071451;28;20467;-68
2021/12/07 00:43:25;;;;;;;5.13;4.50;;;;;;;4.08;61.53;95914.44;5071884;28;20201;-68
2021/12/07 00:45:51;;;;;;;6.83;5.50;;;;;;;3.85;62.29;95912.16;5071591;28;20470;-68
2021/12/07 00:48:17;;;;;;;5.60;4.67;;;;;;;3.83;62.73;95914.91;5068937;28;20428;-69
2021/12/07 00:50:46;;;;;;;7.20;5.40;;;;;;;3.50;64.11;95911.03;5071367;28;20429;-68
2021/12/07 00:53:11;;;;;;;7.00;5.03;;;;;;;3.59;64.87;95912.78;5061569;28;20198;-68
2021/12/07 00:55:42;;;;;;;7.20;5.47;;;;;;;3.83;65.20;95901.16;5071181;28;20444;-68
2021/12/07 00:58:17;;;;;;;6.50;5.10;;;;;;;3.88;65.09;95906.72;5054580;28;20631;-69
2021/12/07 01:00:44;;;;;;;6.13;4.87;;;;;;;3.30;67.50;95915.44;5063405;28;20460;-68
2021/12/07 01:03:10;;;;;;;6.37;5.50;;;;;;;3.36;67.91;95912.31;5035998;28;20449;-68
2021/12/07 01:05:38;;;;;;;7.93;6.10;;;;;;;3.61;67.78;95908.28;5072394;28;20442;-68
2021/12/07 01:26:58;;;;;;;6.80;5.40;;;;;;;3.05;70.31;95899.53;5054763;28;20421;-68
2021/12/07 01:29:25;;;;;;;6.90;5.50;;;;;;;3.39;69.82;95906.84;5071575;28;20425;-71
2021/12/07 01:37:32;;;;;;;5.73;5.10;;;;;;;3.27;70.23;95895.03;5055632;28;20986;-69
2021/12/07 02:00:33;;;;;;;7.30;5.73;;;;;;;3.28;71.20;95915.59;5061911;28;20465;-69
2021/12/07 02:02:59;;;;;;;6.93;5.20;;;;;;;3.37;71.09;95911.34;5070988;28;20953;-69
2021/12/07 02:05:24;;;;;;;6.53;5.50;;;;;;;3.45;71.02;95915.84;5072407;28;20425;-70
2021/12/07 02:07:50;;;;;;;7.57;6.70;;;;;;;3.46;70.65;95914.91;5064613;28;20194;-69
2021/12/07 02:10:20;;;;;;;8.60;5.43;;;;;;;3.58;70.99;95918.13;5065763;28;20273;-70
2021/12/07 02:12:49;;;;;;;8.13;6.17;;;;;;;3.60;70.94;95911.03;5062342;28;20210;-70
2021/12/07 02:15:17;;;;;;;7.33;6.03;;;;;;;3.47;71.09;95914.75;5067860;28;20429;-70
2021/12/07 02:17:43;;;;;;;7.37;6.00;;;;;;;3.67;70.60;95917.28;5073947;28;20412;-69
2021/12/07 02:20:10;;;;;;;7.80;5.83;;;;;;;3.58;71.06;95912.94;5073680;28;20475;-69
2021/12/07 02:22:36;;;;;;;9.10;5.60;;;;;;;3.76;70.33;95924.22;5062574;28;20524;-69
2021/12/07 02:25:04;;;;;;;7.47;5.63;;;;;;;3.65;71.06;95930.38;5060402;28;20444;-69
2021/12/07 02:27:29;;;;;;;7.63;5.40;;;;;;;3.47;72.01;95927.69;5051850;28;20448;-69
2021/12/07 02:29:55;;;;;;;6.80;5.80;;;;;;;3.72;70.89;95930.63;5071876;28;20420;-70
2021/12/07 02:32:21;;;;;;;6.57;5.43;;;;;;;3.50;72.05;95931.78;5072514;28;20202;-69
2021/12/07 02:34:55;;;;;;;7.80;6.40;;;;;;;3.37;72.42;95924.31;5073357;28;20183;-68
2021/12/07 02:37:25;;;;;;;7.80;5.80;;;;;;;3.79;70.97;95928.31;5073441;28;20202;-67
2021/12/07 02:39:51;;;;;;;5.97;5.07;;;;;;;3.45;71.87;95923.63;5073224;28;20551;-68
2021/12/07 02:42:16;;;;;;;6.83;4.87;;;;;;;3.66;72.13;95926.84;5073579;28;20521;-67
2021/12/07 02:44:42;;;;;;;5.00;4.10;;;;;;;3.42;73.31;95929.06;5073183;28;20265;-70
2021/12/07 02:47:08;;;;;;;5.50;4.77;;;;;;;3.80;71.01;95928.16;5071106;28;20212;-69
2021/12/07 02:49:34;;;;;;;6.47;4.97;;;;;;;3.41;72.85;95943.78;5064953;28;20194;-68
2021/12/07 02:52:00;;;;;;;5.70;4.67;;;;;;;2.95;75.25;95953.06;5064562;28;20481;-71
2021/12/07 02:54:26;;;;;;;4.50;4.00;;;;;;;3.19;74.46;95956.06;5065331;28;20186;-68
2021/12/07 02:56:52;;;;;;;14.17;3.93;;;;;;;3.52;73.33;95953.19;5073255;28;20856;-69
2021/12/07 02:59:19;;;;;;;3.80;3.33;;;;;;;3.72;73.24;95956.56;5072775;28;20260;-68
2021/12/07 03:01:52;;;;;;;4.10;3.60;;;;;;;3.12;75.81;95962.75;5073807;28;20425;-70
2021/12/07 03:04:25;;;;;;;4.10;3.70;;;;;;;3.61;74.34;95954.13;5082837;28;20484;-68
2021/12/07 03:26:01;;;;;;;3.23;2.80;;;;;;;3.52;75.61;95979.09;5068524;28;20859;-69
2021/12/07 03:28:27;;;;;;;4.17;2.60;;;;;;;3.33;75.96;95972.16;5037993;28;20426;-68
2021/12/07 03:30:53;;;;;;;3.43;3.07;;;;;;;3.50;75.09;95974.06;5056192;28;20426;-68
2021/12/07 03:33:19;;;;;;;2.50;2.27;;;;;;;3.64;74.53;95979.75;5065838;28;20437;-70
2021/12/07 03:35:45;;;;;;;2.80;2.27;;;;;;;3.73;74.74;95978.91;5072218;28;20439;-70
2021/12/07 03:38:11;;;;;;;2.60;2.40;;;;;;;3.46;75.35;95983.03;5073091;28;20205;-68
2021/12/07 03:40:37;;;;;;;2.97;2.30;;;;;;;3.65;74.79;95974.44;5072266;28;20198;-68
2021/12/07 03:43:03;;;;;;;3.40;2.50;;;;;;;3.47;75.69;95987.28;5072742;28;20198;-68
2021/12/07 03:45:31;;;;;;;2.93;2.43;;;;;;;3.56;75.10;95997.75;5072638;28;20485;-68
2021/12/07 03:47:57;;;;;;;2.13;1.93;;;;;;;3.79;74.48;95999.09;5069790;28;20432;-68
2021/12/07 03:50:23;;;;;;;3.63;2.40;;;;;;;3.44;75.59;95999.69;5070493;28;20937;-68
2021/12/07 03:52:50;;;;;;;3.93;2.60;;;;;;;3.74;74.78;95993.50;5064273;28;20206;-68
2021/12/07 03:55:15;;;;;;;4.13;2.83;;;;;;;3.64;75.60;96006.47;5072451;28;20206;-70
2021/12/07 03:57:41;;;;;;;2.63;2.40;;;;;;;3.71;74.78;96004.16;5071292;28;20503;-67
2021/12/07 04:00:11;;;;;;;3.07;2.57;;;;;;;3.33;76.56;96008.41;5064421;28;20206;-68
2021/12/07 04:02:40;;;;;;;2.87;2.50;;;;;;;3.71;75.35;96014.53;5060766;28;20666;-70
2021/12/07 04:05:13;;;;;;;5.63;2.40;;;;;;;3.98;74.26;96007.78;5057017;28;20420;-67
2021/12/07 04:07:40;;;;;;;2.70;2.50;;;;;;;4.18;73.00;96018.09;5080460;28;20515;-70
2021/12/07 04:10:14;;;;;;;5.63;2.20;;;;;;;4.38;72.27;96019.69;5073053;28;20457;-71
2021/12/07 04:12:40;;;;;;;2.40;2.20;;;;;;;4.81;71.51;96024.38;5042058;28;20453;-70
2021/12/07 04:15:08;;;;;;;3.23;1.83;;;;;;;4.88;70.60;96030.66;5046497;28;20424;-68
2021/12/07 04:17:34;;;;;;;6.37;2.20;;;;;;;5.02;70.32;96037.94;5047848;28;20709;-69
2021/12/07 04:20:00;;;;;;;3.10;2.33;;;;;;;4.77;70.63;96036.84;5050124;28;20464;-69
2021/12/07 04:22:25;;;;;;;2.37;1.77;;;;;;;4.92;70.52;96037.16;5054609;28;20445;-68
2021/12/07 04:24:51;;;;;;;3.37;1.80;;;;;;;4.99;70.65;96040.81;5051754;28;20270;-69
2021/12/07 04:27:18;;;;;;;6.47;2.40;;;;;;;5.06;69.81;96039.28;5051630;28;20185;-68
2021/12/07 04:29:43;;;;;;;2.30;1.53;;;;;;;4.91;70.24;96038.94;5042755;28;20180;-68
2021/12/07 04:32:09;;;;;;;3.33;1.83;;;;;;;5.18;69.61;96033.88;5043686;28;20472;-69
2021/12/07 04:34:35;;;;;;;7.43;1.90;;;;;;;5.08;69.58;96041.75;5048443;28;20193;-68
2021/12/07 04:37:01;;;;;;;2.00;1.80;;;;;;;5.15;69.29;96031.59;5051361;28;20519;-69
2021/12/07 04:39:26;;;;;;;4.50;1.97;;;;;;;5.26;69.12;96048.72;5029782;28;20246;-68
2021/12/07 04:41:53;;;;;;;5.67;2.00;;;;;;;5.20;68.49;96048.34;5052946;28;21919;-69
2021/12/07 04:44:21;;;;;;;4.50;1.93;;;;;;;5.22;69.07;96058.59;5057880;28;20262;-69
2021/12/07 04:50:06;;;;;;;2.10;1.90;;;;;;;5.33;68.22;96052.38;5050133;28;20406;-69
2021/12/07 04:57:58;;;;;;;6.30;2.33;;;;;;;5.22;68.41;96061.19;5059575;28;20441;-69
2021/12/07 05:00:27;;;;;;;3.90;2.27;;;;;;;4.85;69.06;96075.88;5050612;28;20442;-69
2021/12/07 05:03:00;;;;;;;2.80;1.70;;;;;;;5.12;68.52;96074.22;5051177;28;20198;-68
2021/12/07 05:05:31;;;;;;;2.63;2.40;;;;;;;4.70;69.04;96085.13;5051423;28;20520;-70
2021/12/07 05:08:00;;;;;;;4.53;2.00;;;;;;;5.20;68.55;96084.72;5051220;28;20517;-69
2021/12/07 05:10:31;;;;;;;6.27;1.90;;;;;;;5.01;68.26;96090.84;5051125;28;20465;-69
2021/12/07 05:13:22;;;;;;;3.73;1.77;;;;;;;5.17;68.29;96103.19;5053354;28;20452;-67
2021/12/07 05:39:55;;;;;;;4.90;2.17;;;;;;;4.65;70.00;96139.22;5059570;28;20448;-68
2021/12/07 05:42:22;;;;;;;6.73;2.23;;;;;;;4.80;69.07;96143.00;5057561;28;20536;-69
2021/12/07 05:44:49;;;;;;;11.83;2.17;;;;;;;4.85;69.32;96151.16;5061678;28;20835;-67
2021/12/07 05:47:14;;;;;;;6.10;2.50;;;;;;;4.99;69.22;96149.06;5055133;28;20454;-68
2021/12/07 05:49:40;;;;;;;7.50;2.23;;;;;;;4.98;69.12;96147.44;5055184;28;20467;-69
2021/12/07 05:52:06;;;;;;;5.53;2.60;;;;;;;4.92;69.08;96143.63;5059498;28;20205;-69
2021/12/07 05:54:31;;;;;;;5.80;2.20;;;;;;;4.72;69.76;96145.50;5059129;28;20795;-68
2021/12/07 05:56:57;;;;;;;5.10;2.70;;;;;;;4.64;69.81;96146.19;5067617;28;20615;-67
2021/12/07 05:59:23;;;;;;;2.70;2.30;;;;;;;4.65;69.63;96152.19;5059949;28;20413;-67
2021/12/07 06:01:48;;;;;;;6.87;2.30;;;;;;;4.24;70.80;96153.22;5053274;28;20225;-68
2021/12/07 06:04:14;;;;;;;3.53;2.50;;;;;;;4.20;70.85;96151.88;5063272;28;20194;-67
2021/12/07 06:06:40;;;;;;;3.37;2.20;;;;;;;4.23;71.00;96155.97;5060944;28;20175;-68
2021/12/07 06:09:06;;;;;;;9.77;2.50;;;;;;;3.84;71.38;96157.59;5061801;28;20590;-68
2021/12/07 06:11:32;;;;;;;3.50;2.00;;;;;;;3.83;70.47;96163.75;5058665;28;20413;-68
2021/12/07 06:13:57;;;;;;;2.07;1.87;;;;;;;4.06;70.00;96160.06;5052258;28;20233;-68
2021/12/07 06:16:24;;;;;;;11.20;2.30;;;;;;;3.93;69.83;96163.75;5065722;28;20183;-67
2021/12/07 06:18:50;;;;;;;3.00;2.20;;;;;;;4.17;70.03;96169.47;5064781;28;20187;-70
2021/12/07 06:21:15;;;;;;;6.27;2.83;;;;;;;4.13;69.74;96155.97;5056862;28;20455;-69
2021/12/07 06:23:42;;;;;;;4.50;1.90;;;;;;;4.08;69.99;96164.16;5058880;28;20453;-69
2021/12/07 06:26:08;;;;;;;11.43;2.47;;;;;;;4.12;69.88;96159.50;5066287;28;20633;-69
2021/12/07 06:28:34;;;;;;;3.80;2.40;;;;;;;4.25;69.48;96154.06;5078382;28;20799;-68
2021/12/07 06:30:59;;;;;;;10.17;3.20;;;;;;;4.09;69.59;96165.78;5062880;28;20409;-69
2021/12/07 06:33:25;;;;;;;6.33;2.00;;;;;;;4.34;68.67;96166.19;5074251;28;20441;-68
2021/12/07 06:35:57;;;;;;;9.47;2.20;;;;;;;4.19;68.74;96175.34;5073622;28;20202;-70
2021/12/07 06:38:26;;;;;;;10.10;2.70;;;;;;;4.41;68.71;96180.22;5065859;28;20417;-68
2021/12/07 06:40:52;;;;;;;6.57;2.73;;;;;;;4.23;68.63;96181.91;5061679;28;20561;-67
2021/12/07 06:43:18;;;;;;;6.80;2.10;;;;;;;4.63;67.90;96182.66;5073931;28;20456;-69
2021/12/07 06:45:43;;;;;;;7.43;3.00;;;;;;;4.58;68.30;96183.06;5065733;28;20266;-69
2021/12/07 06:48:09;;;;;;;3.53;2.50;;;;;;;4.27;68.86;96184.06;5067159;28;20210;-70
2021/12/07 06:50:36;;;;;;;3.73;2.03;;;;;;;3.99;70.07;96196.09;5054660;28;20172;-67
2021/12/07 06:53:03;;;;;;;8.60;2.40;;;;;;;4.47;68.21;96189.25;5034945;28;20226;-68
2021/12/07 06:55:28;;;;;;;3.20;2.27;;;;;;;4.52;67.82;96187.03;5066876;28;20962;-67
2021/12/07 06:57:54;;;;;;;7.10;2.20;;;;;;;4.68;67.58;96196.03;5074551;28;20417;-69
2021/12/07 07:00:21;;;;;;;3.87;1.87;;;;;;;4.30;69.16;96193.34;5073453;28;20726;-68
2021/12/07 07:02:46;;;;;;;2.30;1.93;;;;;;;4.65;67.92;96202.34;5070483;28;20436;-69
2021/12/07 07:05:13;;;;;;;8.67;2.63;;;;;;;4.42;68.96;96218.19;5055522;28;20440;-69
2021/12/07 07:07:40;;;;;;;6.20;2.00;;;;;;;4.43;68.81;96219.81;5068465;28;20178;-69
2021/12/07 07:10:09;;;;;;;6.23;2.67;;;;;;;4.57;68.54;96225.56;5057636;28;20443;-69
2021/12/07 07:12:34;;;;;;;4.67;2.40;;;;;;;4.31;69.18;96233.91;5073876;28;20432;-69
2021/12/07 07:15:00;;;;;;;9.07;3.47;;;;;;;4.32;68.69;96232.94;5051472;28;20496;-69
2021/12/07 07:17:26;;;;;;;9.43;3.47;;;;;;;4.14;69.39;96236.25;5073963;28;20171;-69
2021/12/07 07:19:52;;;;;;;12.43;2.87;;;;;;;4.69;67.97;96242.59;5061794;28;20207;-69
2021/12/07 07:22:17;;;;;;;6.70;2.77;;;;;;;4.80;67.20;96248.59;5066712;28;20199;-67
2021/12/07 07:24:45;;;;;;;5.10;2.93;;;;;;;4.88;66.60;96241.75;5064071;28;20722;-68
2021/12/07 07:27:11;;;;;;;13.00;3.47;;;;;;;5.11;65.68;96251.00;5056520;28;20175;-68
2021/12/07 07:29:37;;;;;;;6.60;2.40;;;;;;;5.16;65.89;96260.00;5073209;28;20498;-68
2021/12/07 07:32:05;;;;;;;11.30;3.37;;;;;;;5.12;65.82;96263.03;5071523;28;20277;-68
2021/12/07 07:34:30;;;;;;;20.37;3.40;;;;;;;5.31;65.82;96243.97;5065910;28;20425;-68
2021/12/07 07:36:56;;;;;;;7.57;2.87;;;;;;;5.14;65.37;96264.53;5070323;28;20870;-70
2021/12/07 07:39:21;;;;;;;6.30;3.00;;;;;;;5.30;65.60;96247.53;5067084;28;20194;-68
2021/12/07 07:41:47;;;;;;;15.37;3.20;;;;;;;4.90;65.78;96254.63;5059190;28;20194;-67
2021/12/07 07:44:13;;;;;;;6.27;3.07;;;;;;;4.97;66.08;96255.69;5051331;28;20213;-68
2021/12/07 07:46:39;;;;;;;9.97;2.60;;;;;;;5.40;65.96;96250.88;5061602;28;20498;-68
2021/12/07 07:49:05;;;;;;;4.87;2.53;;;;;;;5.13;66.97;96256.88;5063202;28;20178;-68
2021/12/07 07:51:34;;;;;;;5.03;2.67;;;;;;;5.40;65.76;96256.09;5062414;28;20532;-68
2021/12/07 07:54:00;;;;;;;5.10;2.83;;;;;;;5.36;67.62;96254.72;5072704;28;20199;-68
2021/12/07 07:56:29;;;;;;;4.77;2.37;;;;;;;5.35;66.73;96266.09;5073200;28;20441;-66
2021/12/07 07:58:58;;;;;;;6.80;2.50;;;;;;;5.56;65.41;96273.66;5071739;28;20891;-70
2021/12/07 08:01:24;;;;;;;10.30;2.57;;;;;;;5.88;65.61;96274.19;5068543;28;20485;-67
2021/12/07 08:03:52;;;;;;;8.83;2.80;;;;;;;5.86;63.71;96276.16;5069666;28;20432;-66
2021/12/07 08:06:18;;;;;;;4.43;2.70;;;;;;;4.92;66.46;96281.25;5071244;28;20448;-67
2021/12/07 08:08:44;;;;;;;10.40;2.97;;;;;;;5.42;65.22;96284.56;5069700;28;20547;-68
2021/12/07 08:11:10;;;;;;;6.17;2.47;;;;;;;5.33;65.45;96287.03;5058281;28;20427;-67
2021/12/07 08:13:35;;;;;;;9.07;3.40;;;;;;;5.57;65.37;96280.50;5071384;28;20194;-72
2021/12/07 08:16:01;;;;;;;12.93;3.13;;;;;;;5.81;64.22;96286.94;5066231;28;20189;-65
2021/12/07 08:18:27;;;;;;;9.67;4.57;;;;;;;5.63;64.92;96294.69;5072941;28;20189;-65
2021/12/07 08:20:53;;;;;;;9.53;3.73;;;;;;;4.94;66.32;96309.69;5069509;28;20454;-66
2021/12/07 08:23:19;;;;;;;13.10;3.60;;;;;;;5.41;65.79;96308.91;5068397;28;20258;-67
2021/12/07 08:25:46;;;;;;;9.97;3.40;;;;;;;5.35;64.84;96303.28;5058213;28;20183;-67
2021/12/07 08:28:13;;;;;;;7.50;2.70;;;;;;;5.28;65.08;96301.41;5071905;28;20270;-67
2021/12/07 08:30:43;;;;;;;5.60;2.93;;;;;;;5.35;64.57;96311.09;5043719;28;20434;-67
2021/12/07 08:33:09;;;;;;;8.93;2.90;;;;;;;5.50;64.54;96306.25;5054241;28;20818;-66
2021/12/07 08:35:35;;;;;;;6.77;2.30;;;;;;;5.55;63.68;96282.41;5061523;28;20543;-69
2021/12/07 08:38:01;;;;;;;5.43;2.33;;;;;;;5.06;65.02;96298.97;5053614;28;20417;-67
2021/12/07 08:40:30;;;;;;;11.33;3.30;;;;;;;5.13;65.21;96298.44;5071822;28;20452;-67
2021/12/07 08:42:55;;;;;;;9.00;2.93;;;;;;;5.22;64.72;96300.19;5071200;28;20531;-67
2021/12/07 08:45:23;;;;;;;7.63;2.20;;;;;;;5.05;66.29;96299.94;5064500;28;20818;-67
2021/12/07 08:47:49;;;;;;;6.10;2.77;;;;;;;5.21;65.67;96303.75;5069550;28;20996;-65
2021/12/07 08:50:18;;;;;;;5.73;2.70;;;;;;;5.19;64.86;96301.28;5058698;28;20430;-66
2021/12/07 08:52:47;;;;;;;10.53;2.97;;;;;;;5.23;64.92;96304.41;5064639;28;20210;-67
2021/12/07 09:00:30;;;;;;;9.87;3.20;;;;;;;5.78;63.31;96295.06;5072122;28;20791;-68
2021/12/07 09:02:56;;;;;;;9.20;2.90;;;;;;;6.02;62.44;96299.75;5072422;28;20449;-66
2021/12/07 09:05:23;;;;;;;8.93;2.67;;;;;;;5.41;62.41;96307.09;5071885;28;20455;-67
2021/12/07 09:07:50;;;;;;;5.93;2.47;;;;;;;5.74;62.08;96302.31;5054128;28;20800;-67
2021/12/07 09:10:16;;;;;;;10.00;2.43;;;;;;;5.82;61.62;96312.00;5055180;28;20448;-68
2021/12/07 09:12:45;;;;;;;11.87;2.23;;;;;;;5.84;61.52;96323.06;5080959;28;20536;-67
2021/12/07 09:15:11;;;;;;;5.43;2.73;;;;;;;5.85;62.25;96329.91;5063517;28;20945;-67
2021/12/07 09:17:37;;;;;;;9.70;2.47;;;;;;;6.26;60.70;96322.63;5070663;28;20425;-67
2021/12/07 09:20:06;;;;;;;4.97;2.23;;;;;;;6.16;60.46;96316.66;5070217;28;20472;-66
2021/12/07 09:22:32;;;;;;;9.33;2.70;;;;;;;6.02;61.04;96314.53;5064982;28;20448;-67
2021/12/07 09:24:59;;;;;;;6.27;1.87;;;;;;;5.81;61.67;96320.75;5070168;28;20940;-67
2021/12/07 09:27:24;;;;;;;4.57;2.40;;;;;;;6.11;60.36;96316.25;5070679;28;20791;-68
2021/12/07 09:29:50;;;;;;;9.47;2.50;;;;;;;6.42;59.39;96323.75;5070659;28;20427;-67
2021/12/07 09:32:16;;;;;;;5.03;2.20;;;;;;;5.63;61.09;96331.94;5071610;28;20621;-66
2021/12/07 09:34:42;;;;;;;6.20;2.17;;;;;;;6.28;59.79;96319.84;5071160;28;20428;-65
2021/12/07 09:37:07;;;;;;;5.47;1.80;;;;;;;6.10;60.24;96325.03;5069690;28;20190;-66
2021/12/07 09:39:33;;;;;;;5.73;1.63;;;;;;;5.93;61.24;96317.00;5053862;28;20427;-66
2021/12/07 09:41:59;;;;;;;7.20;1.77;;;;;;;5.56;59.86;96333.44;5054213;28;20240;-66
2021/12/07 09:44:25;;;;;;;3.53;1.40;;;;;;;5.87;59.37;96338.41;5064823;28;20621;-66
2021/12/07 09:46:51;;;;;;;7.07;3.30;;;;;;;6.11;58.62;96326.66;5067433;28;20223;-66
2021/12/07 09:49:17;;;;;;;5.83;2.60;;;;;;;5.84;59.98;96325.69;5070906;28;20463;-67
2021/12/07 09:51:43;;;;;;;6.27;2.47;;;;;;;6.02;58.70;96322.34;5059751;28;20432;-66
2021/12/07 09:54:09;;;;;;;6.23;2.63;;;;;;;5.76;59.93;96341.19;5063307;28;20440;-65
2021/12/07 09:56:35;;;;;;;12.27;2.27;;;;;;;5.54;60.06;96332.78;5067874;28;20206;-65
2021/12/07 09:59:02;;;;;;;5.40;2.20;;;;;;;6.03;59.11;96329.19;5070750;28;20417;-67
2021/12/07 10:01:29;;;;;;;7.17;2.07;;;;;;;5.89;59.48;96336.47;5054380;28;20543;-66
2021/12/07 10:03:55;;;;;;;5.30;2.10;;;;;;;6.12;58.65;96330.91;5071176;28;20441;-65
2021/12/07 10:06:21;;;;;;;9.87;1.90;;;;;;;5.54;60.13;96332.78;5071332;28;20420;-66
2021/12/07 10:08:48;;;;;;;6.60;2.30;;;;;;;5.49;60.59;96341.00;5071001;28;20420;-65
2021/12/07 10:11:15;;;;;;;4.47;1.60;;;;;;;5.94;58.89;96333.44;5061147;28;20943;-67
2021/12/07 10:13:43;;;;;;;11.23;2.70;;;;;;;5.81;58.60;96341.56;5062779;28;20452;-67
2021/12/07 10:16:10;;;;;;;6.83;2.10;;;;;;;5.93;58.09;96337.81;5064936;28;20455;-66
2021/12/07 10:18:37;;;;;;;5.20;1.63;;;;;;;6.10;57.27;96325.03;5070882;28;20512;-66
2021/12/07 10:21:05;;;;;;;4.03;2.27;;;;;;;6.42;56.53;96323.75;5057481;28;20916;-66
2021/12/07 10:23:33;;;;;;;5.00;2.30;;;;;;;5.75;58.14;96321.34;5060423;28;21061;-66
2021/12/07 10:26:14;;;;;;;7.07;2.20;;;;;;;5.88;57.66;96319.22;5048864;28;20464;-67
2021/12/07 10:28:49;;;;;;;6.20;1.77;;;;;;;6.17;57.25;96318.31;5054653;28;20452;-66
2021/12/07 10:31:25;;;;;;;13.53;2.30;;;;;;;5.78;57.89;96306.28;5051647;28;20527;-67
2021/12/07 10:33:53;;;;;;;7.27;2.13;;;;;;;6.29;56.15;96298.06;5060172;28;21129;-66
2021/12/07 10:36:40;;;;;;;4.03;1.93;;;;;;;6.29;55.82;96301.50;5074323;28;20435;-66
2021/12/07 10:39:07;;;;;;;8.10;2.10;;;;;;;5.75;56.68;96288.34;5074377;28;20413;-66
2021/12/07 10:41:36;;;;;;;5.50;2.00;;;;;;;6.31;55.94;96285.75;5074071;28;20990;-65
2021/12/07 10:44:16;;;;;;;4.40;2.33;;;;;;;6.40;55.35;96291.84;5066032;28;20992;-67
2021/12/07 10:46:58;;;;;;;8.00;2.93;;;;;;;6.73;54.39;96284.31;5060525;28;20920;-65
2021/12/07 10:49:30;;;;;;;12.80;2.53;;;;;;;6.78;53.51;96284.69;5073915;28;20936;-66
2021/12/07 10:51:58;;;;;;;7.07;1.87;;;;;;;6.39;54.10;96267.59;5071353;28;20424;-66
2021/12/07 10:54:25;;;;;;;4.83;1.90;;;;;;;6.53;54.04;96268.88;5076783;28;20432;-66
2021/12/07 10:56:51;;;;;;;3.50;2.00;;;;;;;6.27;54.65;96261.81;5075059;28;20453;-67
2021/12/07 10:59:17;;;;;;;6.63;2.07;;;;;;;6.29;53.95;96259.88;5073474;28;20496;-66
2021/12/07 11:01:46;;;;;;;6.87;1.90;;;;;;;6.34;53.08;96262.03;5075689;28;20460;-66
2021/12/07 11:04:30;;;;;;;4.77;1.50;;;;;;;6.67;53.19;96256.28;5073476;28;20535;-66
2021/12/07 11:07:25;;;;;;;5.23;2.17;;;;;;;7.11;52.41;96251.03;5058754;28;20436;-66
2021/12/07 11:09:58;;;;;;;7.27;1.83;;;;;;;6.82;52.22;96252.13;5078134;28;20409;-64
2021/12/07 11:12:26;;;;;;;4.63;1.80;;;;;;;6.73;52.21;96247.84;5088657;28;20436;-66
2021/12/07 11:14:57;;;;;;;13.50;2.00;;;;;;;6.56;51.81;96245.09;5057917;28;20421;-67
2021/12/07 11:17:31;;;;;;;4.30;1.90;;;;;;;6.37;52.07;96251.28;5072862;28;20478;-66
2021/12/07 11:19:59;;;;;;;6.70;2.43;;;;;;;6.44;52.71;96246.31;5065713;28;20506;-67
2021/12/07 11:22:31;;;;;;;11.97;2.43;;;;;;;6.49;52.33;96238.88;5068538;28;20455;-67
2021/12/07 11:24:58;;;;;;;8.30;1.53;;;;;;;6.48;52.65;96247.66;5074016;28;20820;-68
2021/12/07 11:30:14;;;;;;;7.10;2.20;;;;;;;6.47;53.22;96240.00;5057521;28;20417;-68
2021/12/07 11:32:54;;;;;;;6.83;2.03;;;;;;;6.70;51.87;96245.53;5073234;28;20464;-68
2021/12/07 11:35:26;;;;;;;6.37;2.13;;;;;;;6.76;52.34;96255.38;5073463;28;20507;-67
2021/12/07 11:37:55;;;;;;;7.63;2.87;;;;;;;6.77;53.24;96257.00;5068058;28;20432;-66
2021/12/07 11:40:33;;;;;;;6.30;1.77;;;;;;;6.93;53.37;96245.06;5062541;28;20472;-66
2021/12/07 11:42:59;;;;;;;6.10;2.10;;;;;;;6.68;54.59;96250.09;5073226;28;20444;-66
2021/12/07 11:45:28;;;;;;;6.57;1.80;;;;;;;6.31;55.80;96241.50;5071425;28;20417;-67
2021/12/07 11:51:34;;;;;;;6.80;2.20;;;;;;;7.01;54.78;96232.09;5051791;28;20449;-67
2021/12/07 11:57:22;;;;;;;6.90;1.87;;;;;;;6.87;55.02;96228.25;5037551;28;20429;-66
2021/12/07 11:59:49;;;;;;;6.70;1.97;;;;;;;6.49;54.97;96220.66;5060000;28;20457;-69
2021/12/07 12:02:17;;;;;;;12.67;2.43;;;;;;;7.34;54.00;96216.63;5061139;28;20265;-63
2021/12/07 12:04:44;;;;;;;15.80;3.30;;;;;;;8.81;53.91;96209.22;5059211;28;20425;-64
2021/12/07 12:07:10;;;;;;;21.40;3.13;;;;;;;9.22;52.64;96205.69;5047000;28;20447;-65
2021/12/07 12:09:44;;;;;;;15.23;2.77;;;;;;;10.88;47.58;96195.84;5063908;28;20488;-63
2021/12/07 12:12:48;;;;;;;6.07;1.67;;;;;;;10.70;44.07;96187.53;5052021;28;20443;-64
2021/12/07 12:15:27;;;;;;;7.20;1.83;;;;;;;9.82;45.72;96182.56;5050188;28;20912;-70
2021/12/07 12:18:12;;;;;;;2.07;1.40;;;;;;;8.78;48.18;96182.63;5050456;28;20444;-66
2021/12/07 12:20:57;;;;;;;4.10;1.73;;;;;;;8.71;49.01;96178.03;5050970;28;20833;-68
2021/12/07 12:23:36;;;;;;;9.67;2.33;;;;;;;9.08;48.19;96170.63;5051068;28;20480;-70
2021/12/07 12:26:07;;;;;;;6.63;1.73;;;;;;;9.75;47.76;96176.38;5041193;28;20929;-66
2021/12/07 12:28:37;;;;;;;3.23;1.53;;;;;;;9.61;45.59;96163.03;5046192;28;20523;-68
2021/12/07 12:31:05;;;;;;;6.47;1.37;;;;;;;9.31;44.67;96159.44;5046590;28;20558;-70
2021/12/07 12:33:53;;;;;;;6.20;1.70;;;;;;;9.26;44.19;96154.72;5063878;28;20443;-66
2021/12/07 12:36:21;;;;;;;6.40;1.40;;;;;;;9.84;44.69;96152.63;5064026;28;20837;-68
2021/12/07 12:38:59;;;;;;;3.70;1.70;;;;;;;9.64;44.00;96147.00;5049139;28;20449;-67
2021/12/07 12:41:26;;;;;;;7.23;2.20;;;;;;;8.65;45.89;96142.16;5049193;28;20460;-66
2021/12/07 12:43:58;;;;;;;5.83;2.50;;;;;;;8.85;45.71;96147.00;5046278;28;20460;-68
2021/12/07 12:46:27;;;;;;;5.87;1.87;;;;;;;8.88;45.78;96157.13;5051416;28;20428;-66
2021/12/07 12:48:55;;;;;;;9.40;2.43;;;;;;;8.04;47.97;96162.53;5051641;28;20445;-70
2021/12/07 12:51:22;;;;;;;4.03;1.33;;;;;;;8.59;45.43;96153.25;5051240;28;20421;-66
2021/12/07 12:53:49;;;;;;;10.13;1.90;;;;;;;8.48;45.21;96157.03;5051861;28;20920;-66
2021/12/07 12:56:24;;;;;;;12.60;1.47;;;;;;;8.71;45.52;96157.13;5048466;28;20979;-66
2021/12/07 12:58:53;;;;;;;2.80;1.33;;;;;;;8.53;46.35;96159.94;5054383;28;20433;-70
2021/12/07 13:01:24;;;;;;;7.00;1.83;;;;;;;8.51;46.15;96161.09;5051368;28;20990;-66
2021/12/07 13:03:54;;;;;;;4.77;2.40;;;;;;;8.48;45.92;96153.59;5053681;28;20504;-67
2021/12/07 13:06:22;;;;;;;5.53;2.30;;;;;;;8.20;47.59;96157.31;5057599;28;20506;-67
2021/12/07 13:08:54;;;;;;;4.50;1.80;;;;;;;8.02;47.17;96157.47;5049666;28;20434;-66
2021/12/07 13:11:43;;;;;;;7.80;1.57;;;;;;;7.13;49.95;96152.69;5057013;28;20445;-67
2021/12/07 13:14:29;;;;;;;4.27;2.00;;;;;;;7.98;49.04;96156.16;5054173;28;20433;-69
2021/12/07 13:17:20;;;;;;;7.17;1.80;;;;;;;8.12;48.87;96147.69;5060726;28;20433;-67
2021/12/07 13:20:11;;;;;;;5.23;1.50;;;;;;;7.69;49.02;96146.97;5050704;28;22400;-66
2021/12/07 13:22:44;;;;;;;7.53;1.43;;;;;;;7.46;49.68;96139.75;5054173;28;20442;-66
2021/12/07 13:25:23;;;;;;;7.23;1.73;;;;;;;7.95;48.58;96146.03;5052393;28;20484;-67
2021/12/07 13:28:04;;;;;;;7.30;1.93;;;;;;;7.57;49.86;96137.81;5048546;28;20443;-68
2021/12/07 13:31:04;;;;;;;7.37;1.77;;;;;;;8.08;49.24;96129.94;5052213;28;20452;-66
2021/12/07 13:33:38;;;;;;;5.80;2.17;;;;;;;8.22;49.31;96139.72;5049937;28;20457;-66
2021/12/07 13:36:31;;;;;;;10.60;2.70;;;;;;;8.26;49.28;96127.94;5046821;28;21187;-67
2021/12/07 13:39:27;;;;;;;8.40;3.83;;;;;;;7.60;51.61;96124.47;5061838;28;20764;-68
2021/12/07 13:41:58;;;;;;;13.83;2.63;;;;;;;7.12;53.00;96134.63;5071066;28;20803;-67